Time;durP1;ratioP1;P1;durP2;ratioP2;P2;SDS_P1;SDS_P2;PMS_P1;PMS_P2;Temp;Humidity;BMP_temperature;BMP_pressure;BME280_temperature;BME280_humidity;BME280_pressure;Samples;Min_cycle;Max_cycle;Signal;HPM_P1;HPM_P2
2023/07/11 00:00:47;;;;;;;3.40;1.50;;;;;;;;;;5049197;27;98414;-76
2023/07/11 00:03:14;;;;;;;4.18;1.58;;;;;;;;;;5051602;27;99134;-75
2023/07/11 00:05:41;;;;;;;5.65;1.70;;;;;;;;;;5052287;27;98277;-76
2023/07/11 00:08:07;;;;;;;1.88;1.67;;;;;;;;;;5048996;27;99065;-74
2023/07/11 00:10:34;;;;;;;3.33;1.40;;;;;;;;;;5049652;27;101175;-75
2023/07/11 00:13:00;;;;;;;3.90;2.05;;;;;;;;;;5049989;27;98366;-75
2023/07/11 00:15:27;;;;;;;2.95;1.55;;;;;;;;;;5052718;27;99187;-76
2023/07/11 00:17:54;;;;;;;7.75;1.58;;;;;;;;;;5046840;27;100237;-75
2023/07/11 00:20:20;;;;;;;4.03;1.92;;;;;;;;;;5035503;27;99327;-75
2023/07/11 00:22:49;;;;;;;4.10;2.00;;;;;;;;;;5031028;27;99430;-75
2023/07/11 00:25:16;;;;;;;5.40;2.78;;;;;;;;;;5034134;27;98206;-75
2023/07/11 00:27:42;;;;;;;6.43;1.50;;;;;;;;;;5044802;27;99373;-76
2023/07/11 00:30:09;;;;;;;2.92;1.67;;;;;;;;;;5052890;27;100266;-75
2023/07/11 00:32:36;;;;;;;4.82;1.40;;;;;;;;;;5049943;27;98097;-76
2023/07/11 00:35:02;;;;;;;2.08;1.58;;;;;;;;;;5049338;27;99622;-75
2023/07/11 00:37:29;;;;;;;4.38;1.67;;;;;;;;;;5052291;27;98942;-75
2023/07/11 00:39:56;;;;;;;2.83;1.45;;;;;;;;;;5050267;27;99762;-75
2023/07/11 00:42:23;;;;;;;4.13;1.65;;;;;;;;;;5049265;27;98997;-75
2023/07/11 00:44:51;;;;;;;3.00;1.50;;;;;;;;;;5049092;27;98221;-76
2023/07/11 00:47:18;;;;;;;5.55;1.90;;;;;;;;;;5049381;27;99804;-76
2023/07/11 00:49:46;;;;;;;6.30;1.70;;;;;;;;;;5048658;27;99936;-75
2023/07/11 00:52:15;;;;;;;2.90;1.60;;;;;;;;;;5049894;27;98217;-76
2023/07/11 00:54:42;;;;;;;5.07;1.73;;;;;;;;;;5050099;27;98466;-75
2023/07/11 00:57:09;;;;;;;6.95;2.60;;;;;;;;;;5068391;27;100071;-75
2023/07/11 00:59:36;;;;;;;4.13;1.58;;;;;;;;;;5049065;27;99062;-75
2023/07/11 01:02:06;;;;;;;4.10;1.95;;;;;;;;;;5049491;27;98804;-74
2023/07/11 01:04:34;;;;;;;3.25;1.77;;;;;;;;;;5037309;27;98421;-76
2023/07/11 01:07:00;;;;;;;2.65;1.60;;;;;;;;;;5028030;28;99795;-75
2023/07/11 01:09:28;;;;;;;4.35;1.45;;;;;;;;;;5029347;27;98804;-75
2023/07/11 01:11:54;;;;;;;3.83;1.60;;;;;;;;;;5027525;28;98213;-76
2023/07/11 01:14:21;;;;;;;5.55;1.60;;;;;;;;;;5040028;27;98246;-74
2023/07/11 01:16:51;;;;;;;7.53;1.70;;;;;;;;;;5048140;27;98943;-75
2023/07/11 01:19:20;;;;;;;4.70;1.27;;;;;;;;;;5052029;27;98402;-74
2023/07/11 01:21:47;;;;;;;5.05;1.80;;;;;;;;;;5049414;27;99124;-74
2023/07/11 01:24:13;;;;;;;2.28;1.40;;;;;;;;;;5048710;27;98185;-75
2023/07/11 01:26:40;;;;;;;4.10;1.52;;;;;;;;;;5047981;27;98471;-76
2023/07/11 01:29:07;;;;;;;2.13;1.63;;;;;;;;;;5048110;27;101478;-76
2023/07/11 01:31:34;;;;;;;4.10;1.65;;;;;;;;;;5050335;27;98503;-75
2023/07/11 01:34:02;;;;;;;2.97;2.00;;;;;;;;;;5052793;27;99205;-75
2023/07/11 01:36:29;;;;;;;4.47;1.77;;;;;;;;;;5050057;27;99312;-75
2023/07/11 01:38:57;;;;;;;1.63;1.30;;;;;;;;;;5051361;27;98210;-76
2023/07/11 01:41:24;;;;;;;2.63;1.77;;;;;;;;;;5056286;27;98382;-76
2023/07/11 01:43:51;;;;;;;4.45;1.90;;;;;;;;;;5051073;27;98140;-76
2023/07/11 01:46:18;;;;;;;2.67;1.63;;;;;;;;;;5051912;27;98442;-75
2023/07/11 01:48:44;;;;;;;1.77;1.48;;;;;;;;;;5053247;27;100008;-76
2023/07/11 01:51:11;;;;;;;5.15;1.80;;;;;;;;;;5050625;27;98335;-76
2023/07/11 01:53:37;;;;;;;2.72;1.48;;;;;;;;;;5051870;27;98417;-76
2023/07/11 01:56:04;;;;;;;5.25;1.60;;;;;;;;;;5052608;27;98897;-75
2023/07/11 01:58:33;;;;;;;3.45;1.58;;;;;;;;;;5050689;27;98177;-76
2023/07/11 02:00:59;;;;;;;3.90;1.27;;;;;;;;;;5049546;27;101157;-74
2023/07/11 02:03:26;;;;;;;2.42;1.38;;;;;;;;;;5054918;27;99341;-75
2023/07/11 02:05:53;;;;;;;3.92;1.58;;;;;;;;;;5051938;27;98401;-74
2023/07/11 02:08:22;;;;;;;2.47;1.60;;;;;;;;;;5051717;27;99271;-75
2023/07/11 02:10:48;;;;;;;4.25;2.15;;;;;;;;;;5052099;27;98318;-76
2023/07/11 02:13:15;;;;;;;3.95;1.90;;;;;;;;;;5051198;27;99410;-76
2023/07/11 02:15:41;;;;;;;7.75;1.85;;;;;;;;;;5051874;27;98739;-76
2023/07/11 02:18:08;;;;;;;7.55;1.95;;;;;;;;;;5052136;27;98171;-77
2023/07/11 02:20:43;;;;;;;3.22;1.90;;;;;;;;;;5047756;27;99755;-74
2023/07/11 02:23:13;;;;;;;6.68;1.90;;;;;;;;;;5052468;27;98810;-76
2023/07/11 02:25:40;;;;;;;3.15;1.73;;;;;;;;;;5053801;27;98239;-75
2023/07/11 02:28:07;;;;;;;6.63;1.90;;;;;;;;;;5051299;27;98866;-75
2023/07/11 02:30:34;;;;;;;2.83;1.90;;;;;;;;;;5051785;27;98273;-76
2023/07/11 02:33:00;;;;;;;2.20;2.00;;;;;;;;;;5051765;27;100113;-75
2023/07/11 02:35:27;;;;;;;9.25;2.20;;;;;;;;;;5051048;27;99509;-75
2023/07/11 02:37:53;;;;;;;4.85;2.17;;;;;;;;;;5051775;27;98249;-74
2023/07/11 02:40:20;;;;;;;2.25;2.03;;;;;;;;;;5051447;27;99332;-75
2023/07/11 02:42:47;;;;;;;5.63;2.08;;;;;;;;;;5050481;27;100396;-75
2023/07/11 02:45:14;;;;;;;2.45;2.22;;;;;;;;;;5051591;27;98186;-75
2023/07/11 02:47:40;;;;;;;6.05;2.17;;;;;;;;;;5053942;27;99250;-75
2023/07/11 02:50:07;;;;;;;11.73;3.20;;;;;;;;;;5050189;27;98245;-75
2023/07/11 02:52:35;;;;;;;5.03;2.60;;;;;;;;;;5051097;27;98904;-75
2023/07/11 02:55:02;;;;;;;4.10;2.58;;;;;;;;;;5051316;27;100082;-74
2023/07/11 02:57:29;;;;;;;6.13;2.42;;;;;;;;;;5049639;27;98801;-75
2023/07/11 02:59:56;;;;;;;12.10;3.03;;;;;;;;;;5051230;27;99330;-75
2023/07/11 03:02:22;;;;;;;4.18;2.58;;;;;;;;;;5050411;27;99821;-75
2023/07/11 03:04:51;;;;;;;12.50;3.38;;;;;;;;;;5047493;27;98264;-74
2023/07/11 03:07:18;;;;;;;7.22;2.72;;;;;;;;;;5034017;27;98619;-75
2023/07/11 03:09:44;;;;;;;5.70;3.47;;;;;;;;;;5030152;27;98273;-75
2023/07/11 03:12:10;;;;;;;8.07;3.45;;;;;;;;;;5031795;27;99983;-75
2023/07/11 03:14:39;;;;;;;3.67;2.47;;;;;;;;;;5032336;27;98939;-76
2023/07/11 03:17:06;;;;;;;7.32;3.17;;;;;;;;;;5041322;27;98634;-76
2023/07/11 03:19:32;;;;;;;3.90;3.42;;;;;;;;;;5055243;27;99321;-76
2023/07/11 03:21:59;;;;;;;7.80;3.67;;;;;;;;;;5052139;27;99943;-76
2023/07/11 03:24:25;;;;;;;4.80;3.33;;;;;;;;;;5050539;27;98268;-76
2023/07/11 03:26:52;;;;;;;6.72;3.50;;;;;;;;;;5051160;27;100713;-76
2023/07/11 03:29:18;;;;;;;8.30;4.05;;;;;;;;;;5053714;27;100187;-75
2023/07/11 03:31:46;;;;;;;5.57;3.47;;;;;;;;;;5050490;27;98376;-76
2023/07/11 03:34:13;;;;;;;15.57;3.63;;;;;;;;;;5050382;27;99012;-76
2023/07/11 03:36:40;;;;;;;6.18;3.58;;;;;;;;;;5050369;27;98225;-76
2023/07/11 03:39:07;;;;;;;6.55;4.00;;;;;;;;;;5049189;27;98403;-75
2023/07/11 03:41:36;;;;;;;4.25;3.25;;;;;;;;;;5050212;27;99981;-76
2023/07/11 03:44:02;;;;;;;8.23;3.80;;;;;;;;;;5050747;27;98629;-75
2023/07/11 03:46:29;;;;;;;5.70;3.30;;;;;;;;;;5049202;27;98433;-76
2023/07/11 03:48:59;;;;;;;8.55;3.40;;;;;;;;;;5049996;27;98747;-76
2023/07/11 03:51:26;;;;;;;5.65;3.50;;;;;;;;;;5053001;27;98240;-75
2023/07/11 03:53:53;;;;;;;7.28;4.30;;;;;;;;;;5049696;27;99908;-75
2023/07/11 03:56:19;;;;;;;12.98;3.95;;;;;;;;;;5050725;27;98210;-75
2023/07/11 03:58:46;;;;;;;6.78;4.18;;;;;;;;;;5049369;27;99607;-74
2023/07/11 04:01:12;;;;;;;11.85;4.45;;;;;;;;;;5050146;27;100205;-77
2023/07/11 04:03:39;;;;;;;7.95;4.35;;;;;;;;;;5029466;27;99702;-75
2023/07/11 04:06:06;;;;;;;11.30;4.50;;;;;;;;;;5029535;28;99322;-76
2023/07/11 04:08:38;;;;;;;6.65;4.90;;;;;;;;;;5039608;27;100006;-75
2023/07/11 04:11:05;;;;;;;7.88;4.80;;;;;;;;;;5051144;27;98279;-75
2023/07/11 04:13:32;;;;;;;10.05;5.50;;;;;;;;;;5052579;27;99420;-75
2023/07/11 04:15:59;;;;;;;5.07;4.40;;;;;;;;;;5050306;27;98219;-76
2023/07/11 04:18:25;;;;;;;5.18;4.60;;;;;;;;;;5050169;27;99718;-75
2023/07/11 04:20:53;;;;;;;6.28;4.32;;;;;;;;;;5046005;27;101503;-75
2023/07/11 04:23:20;;;;;;;8.02;5.03;;;;;;;;;;5049015;27;98278;-75
2023/07/11 04:25:47;;;;;;;7.32;5.35;;;;;;;;;;5049651;27;99985;-75
2023/07/11 04:28:13;;;;;;;5.53;4.97;;;;;;;;;;5048007;27;100034;-74
2023/07/11 04:30:39;;;;;;;6.10;5.60;;;;;;;;;;5049567;27;98160;-75
2023/07/11 04:33:06;;;;;;;16.38;5.55;;;;;;;;;;5049604;27;98695;-75
2023/07/11 04:35:33;;;;;;;10.93;5.55;;;;;;;;;;5051762;27;100223;-74
2023/07/11 04:37:59;;;;;;;8.05;5.63;;;;;;;;;;5049643;27;99226;-75
2023/07/11 04:40:25;;;;;;;10.02;5.90;;;;;;;;;;5049153;27;98868;-75
2023/07/11 04:42:52;;;;;;;8.02;5.63;;;;;;;;;;5048789;27;98290;-75
2023/07/11 04:45:18;;;;;;;6.35;5.43;;;;;;;;;;5048911;27;98119;-75
2023/07/11 04:47:47;;;;;;;6.13;5.57;;;;;;;;;;5048556;27;100001;-75
2023/07/11 04:50:14;;;;;;;7.50;5.93;;;;;;;;;;5049276;27;98263;-75
2023/07/11 04:52:42;;;;;;;6.72;5.45;;;;;;;;;;5048662;27;99453;-75
2023/07/11 04:55:10;;;;;;;9.32;6.18;;;;;;;;;;5048244;27;99505;-75
2023/07/11 04:57:36;;;;;;;9.35;6.15;;;;;;;;;;5052582;27;98217;-75
2023/07/11 05:00:03;;;;;;;14.32;6.22;;;;;;;;;;5049185;27;100270;-75
2023/07/11 05:02:30;;;;;;;5.43;5.03;;;;;;;;;;5048473;27;98261;-76
2023/07/11 05:04:56;;;;;;;8.23;6.15;;;;;;;;;;5047358;27;99023;-75
2023/07/11 05:07:23;;;;;;;12.38;6.20;;;;;;;;;;5035742;27;100204;-75
2023/07/11 05:09:49;;;;;;;9.55;5.95;;;;;;;;;;5031963;27;98178;-75
2023/07/11 05:12:18;;;;;;;10.48;5.97;;;;;;;;;;5032902;27;99464;-76
2023/07/11 05:14:45;;;;;;;6.35;5.57;;;;;;;;;;5053185;27;100002;-75
2023/07/11 05:17:11;;;;;;;8.05;6.00;;;;;;;;;;5060302;27;98300;-76
2023/07/11 05:19:38;;;;;;;6.88;5.97;;;;;;;;;;5052689;27;99931;-76
2023/07/11 05:22:04;;;;;;;8.75;6.70;;;;;;;;;;5054197;27;98233;-76
2023/07/11 05:24:31;;;;;;;6.80;5.63;;;;;;;;;;5060625;27;99430;-76
2023/07/11 05:26:58;;;;;;;7.65;6.07;;;;;;;;;;5064156;27;100610;-76
2023/07/11 05:29:28;;;;;;;12.38;5.75;;;;;;;;;;5062834;27;97860;-76
2023/07/11 05:31:54;;;;;;;8.70;6.88;;;;;;;;;;5053300;27;98930;-75
2023/07/11 05:34:21;;;;;;;8.90;5.10;;;;;;;;;;5052526;27;99913;-75
2023/07/11 05:36:47;;;;;;;8.07;5.55;;;;;;;;;;5051730;27;98242;-76
2023/07/11 05:39:15;;;;;;;10.07;6.32;;;;;;;;;;5055155;27;99401;-75
2023/07/11 05:41:44;;;;;;;8.32;6.13;;;;;;;;;;5051642;27;98360;-75
2023/07/11 05:44:14;;;;;;;16.60;6.32;;;;;;;;;;5051619;27;99116;-76
2023/07/11 05:46:42;;;;;;;11.03;6.47;;;;;;;;;;5052258;27;100282;-76
2023/07/11 05:49:13;;;;;;;10.45;5.60;;;;;;;;;;5052379;27;98099;-76
2023/07/11 05:51:39;;;;;;;5.80;5.25;;;;;;;;;;5051412;27;98567;-76
2023/07/11 05:54:06;;;;;;;13.23;5.72;;;;;;;;;;5052206;27;99836;-76
2023/07/11 05:56:34;;;;;;;6.80;5.18;;;;;;;;;;5052167;27;98272;-76
2023/07/11 05:59:00;;;;;;;8.52;5.65;;;;;;;;;;5052020;27;99307;-76
2023/07/11 06:01:29;;;;;;;6.22;4.45;;;;;;;;;;5047331;27;98959;-74
2023/07/11 06:04:07;;;;;;;9.23;3.72;;;;;;;;;;5042535;27;98657;-74
2023/07/11 06:06:35;;;;;;;4.55;3.67;;;;;;;;;;5049705;27;98956;-75
2023/07/11 06:09:02;;;;;;;4.05;3.67;;;;;;;;;;5050421;27;99057;-73
2023/07/11 06:11:28;;;;;;;6.78;4.35;;;;;;;;;;5052506;27;100000;-75
2023/07/11 06:13:55;;;;;;;6.75;3.72;;;;;;;;;;5049433;27;99794;-75
2023/07/11 06:16:21;;;;;;;8.50;4.00;;;;;;;;;;5050573;27;98250;-73
2023/07/11 06:18:50;;;;;;;8.60;3.78;;;;;;;;;;5051301;27;98155;-75
2023/07/11 06:21:16;;;;;;;9.57;3.97;;;;;;;;;;5040296;27;98884;-73
2023/07/11 06:23:44;;;;;;;11.70;4.13;;;;;;;;;;5034932;27;98316;-76
2023/07/11 06:26:10;;;;;;;11.52;3.78;;;;;;;;;;5049734;27;99111;-75
2023/07/11 06:28:37;;;;;;;4.93;4.03;;;;;;;;;;5050181;27;98269;-74
2023/07/11 06:31:05;;;;;;;7.00;3.97;;;;;;;;;;5044871;27;99453;-74
2023/07/11 06:33:34;;;;;;;4.05;3.67;;;;;;;;;;5045524;27;99834;-74
2023/07/11 06:36:01;;;;;;;8.27;4.40;;;;;;;;;;5048099;27;98069;-74
2023/07/11 06:38:27;;;;;;;4.97;4.07;;;;;;;;;;5045281;27;99481;-74
2023/07/11 06:40:54;;;;;;;7.10;3.35;;;;;;;;;;5045970;27;100030;-76
2023/07/11 06:43:22;;;;;;;6.10;3.25;;;;;;;;;;5047583;27;98299;-73
2023/07/11 06:45:49;;;;;;;5.13;3.20;;;;;;;;;;5052882;27;100133;-74
2023/07/11 06:48:17;;;;;;;4.75;3.17;;;;;;;;;;5050455;27;98280;-74
2023/07/11 06:50:50;;;;;;;4.20;3.20;;;;;;;;;;5050873;27;98566;-74
2023/07/11 06:53:17;;;;;;;7.15;3.63;;;;;;;;;;5051379;27;98931;-74
2023/07/11 06:55:50;;;;;;;5.43;2.92;;;;;;;;;;5048992;27;98318;-74
2023/07/11 06:58:17;;;;;;;4.75;2.67;;;;;;;;;;5051280;27;99423;-74
2023/07/11 07:00:44;;;;;;;6.28;2.70;;;;;;;;;;5050636;27;99888;-74
2023/07/11 07:03:12;;;;;;;3.95;2.35;;;;;;;;;;5050216;27;98281;-74
2023/07/11 07:05:46;;;;;;;8.52;2.80;;;;;;;;;;5051053;27;99503;-74
2023/07/11 07:08:13;;;;;;;2.67;2.30;;;;;;;;;;5050565;27;98142;-74
2023/07/11 07:10:41;;;;;;;6.40;3.63;;;;;;;;;;5050149;27;99783;-74
2023/07/11 07:13:07;;;;;;;6.32;2.67;;;;;;;;;;5051049;27;100211;-74
2023/07/11 07:15:33;;;;;;;6.05;2.20;;;;;;;;;;5047573;27;98303;-74
2023/07/11 07:18:00;;;;;;;3.88;2.30;;;;;;;;;;5039286;27;99358;-75
2023/07/11 07:20:26;;;;;;;4.95;2.35;;;;;;;;;;5039222;27;100036;-74
2023/07/11 07:22:53;;;;;;;4.50;1.70;;;;;;;;;;5044671;27;98060;-74
2023/07/11 07:25:20;;;;;;;3.13;2.00;;;;;;;;;;5050801;27;99791;-74
2023/07/11 07:27:50;;;;;;;6.43;1.98;;;;;;;;;;5052940;27;100213;-74
2023/07/11 07:30:16;;;;;;;4.72;2.30;;;;;;;;;;5049541;27;99721;-76
2023/07/11 07:32:43;;;;;;;6.15;2.35;;;;;;;;;;5047898;27;99191;-76
2023/07/11 07:35:09;;;;;;;5.07;1.98;;;;;;;;;;5034150;27;98258;-76
2023/07/11 07:37:36;;;;;;;4.95;1.95;;;;;;;;;;5033935;27;98542;-77
2023/07/11 07:40:03;;;;;;;7.32;2.00;;;;;;;;;;5034053;27;98900;-79
2023/07/11 07:42:29;;;;;;;5.07;2.10;;;;;;;;;;5030337;27;98241;-79
2023/07/11 07:44:55;;;;;;;4.88;2.58;;;;;;;;;;5037907;27;99369;-78
2023/07/11 07:47:22;;;;;;;3.92;2.03;;;;;;;;;;5046909;27;99253;-78
2023/07/11 07:49:49;;;;;;;2.78;1.65;;;;;;;;;;5045276;27;98274;-79
2023/07/11 07:52:22;;;;;;;3.90;2.00;;;;;;;;;;5048100;27;99943;-78
2023/07/11 07:54:48;;;;;;;5.15;2.30;;;;;;;;;;5051085;27;98222;-78
2023/07/11 07:57:15;;;;;;;6.95;2.20;;;;;;;;;;5052309;27;98569;-78
2023/07/11 07:59:41;;;;;;;2.53;1.73;;;;;;;;;;5049675;27;98892;-77
2023/07/11 08:02:08;;;;;;;1.90;1.65;;;;;;;;;;5050732;27;98168;-76
2023/07/11 08:04:35;;;;;;;5.35;1.70;;;;;;;;;;5049992;27;98663;-76
2023/07/11 08:07:02;;;;;;;3.58;1.75;;;;;;;;;;5048963;27;99727;-77
2023/07/11 08:09:29;;;;;;;2.70;1.77;;;;;;;;;;5033136;27;98243;-77
2023/07/11 08:12:03;;;;;;;2.63;1.50;;;;;;;;;;5031879;27;98684;-76
2023/07/11 08:14:30;;;;;;;3.72;1.98;;;;;;;;;;5033572;27;98834;-77
2023/07/11 08:16:56;;;;;;;2.58;1.80;;;;;;;;;;5039194;27;98538;-77
2023/07/11 08:19:23;;;;;;;9.30;1.52;;;;;;;;;;5048438;27;99463;-77
2023/07/11 08:21:52;;;;;;;2.67;1.70;;;;;;;;;;5036798;27;98234;-77
2023/07/11 08:24:23;;;;;;;7.57;1.95;;;;;;;;;;5033342;27;98088;-80
2023/07/11 08:26:51;;;;;;;4.45;1.60;;;;;;;;;;5043456;27;100141;-78
2023/07/11 08:29:17;;;;;;;3.05;1.95;;;;;;;;;;5048996;27;98872;-79
2023/07/11 08:31:55;;;;;;;3.25;2.05;;;;;;;;;;5048260;27;99828;-79
2023/07/11 08:34:21;;;;;;;3.15;1.63;;;;;;;;;;5051356;27;100475;-79
2023/07/11 08:36:48;;;;;;;2.60;1.52;;;;;;;;;;5049434;27;99820;-79
2023/07/11 08:39:14;;;;;;;3.15;1.70;;;;;;;;;;5049168;27;99960;-78
2023/07/11 08:41:47;;;;;;;2.13;1.40;;;;;;;;;;5032851;27;99099;-78
2023/07/11 08:44:18;;;;;;;3.80;1.50;;;;;;;;;;5030596;27;99745;-78
2023/07/11 08:46:47;;;;;;;2.63;1.75;;;;;;;;;;5048885;27;99716;-78
2023/07/11 08:49:22;;;;;;;4.55;1.63;;;;;;;;;;5049050;27;98293;-79
2023/07/11 08:51:51;;;;;;;6.97;1.60;;;;;;;;;;5047858;27;99333;-78
2023/07/11 08:54:23;;;;;;;3.08;1.42;;;;;;;;;;5048589;27;99897;-79
2023/07/11 08:56:50;;;;;;;3.35;1.63;;;;;;;;;;5052811;27;98089;-78
2023/07/11 08:59:19;;;;;;;2.78;1.95;;;;;;;;;;5048133;27;98956;-78
2023/07/11 09:01:46;;;;;;;2.88;1.70;;;;;;;;;;5047438;27;99131;-78
2023/07/11 09:04:14;;;;;;;4.18;1.40;;;;;;;;;;5048792;27;98725;-78
2023/07/11 09:06:50;;;;;;;5.50;1.42;;;;;;;;;;5048888;27;99156;-79
2023/07/11 09:09:16;;;;;;;2.88;1.63;;;;;;;;;;5036036;27;98477;-78
2023/07/11 09:11:53;;;;;;;4.95;1.70;;;;;;;;;;5028929;27;99365;-79
2023/07/11 09:14:23;;;;;;;3.22;1.50;;;;;;;;;;5028922;27;99853;-78
2023/07/11 09:16:49;;;;;;;7.80;1.92;;;;;;;;;;5050280;27;98289;-78
2023/07/11 09:19:18;;;;;;;2.33;1.70;;;;;;;;;;5048399;27;98873;-78
2023/07/11 09:21:47;;;;;;;2.42;1.52;;;;;;;;;;5048700;27;98226;-78
2023/07/11 09:24:18;;;;;;;15.07;2.33;;;;;;;;;;5047630;27;99467;-78
2023/07/11 09:26:49;;;;;;;2.03;1.40;;;;;;;;;;5047963;27;99085;-77
2023/07/11 09:29:16;;;;;;;2.42;1.70;;;;;;;;;;5048495;27;98878;-78
2023/07/11 09:31:46;;;;;;;6.05;1.95;;;;;;;;;;5049044;27;99731;-78
2023/07/11 09:34:31;;;;;;;8.80;1.80;;;;;;;;;;5048911;27;99830;-77
2023/07/11 09:36:58;;;;;;;3.88;1.50;;;;;;;;;;5048109;27;98268;-77
2023/07/11 09:39:35;;;;;;;2.25;1.50;;;;;;;;;;5052049;27;99340;-77
2023/07/11 09:42:13;;;;;;;3.53;1.90;;;;;;;;;;5049406;27;98018;-76
2023/07/11 09:44:40;;;;;;;6.85;2.28;;;;;;;;;;5047082;27;99452;-77
2023/07/11 09:47:17;;;;;;;4.88;2.10;;;;;;;;;;5048287;27;99228;-77
2023/07/11 09:49:44;;;;;;;3.33;1.55;;;;;;;;;;5047735;27;98258;-77
2023/07/11 09:52:16;;;;;;;6.30;1.85;;;;;;;;;;5049640;27;99424;-77
2023/07/11 09:54:44;;;;;;;4.65;1.60;;;;;;;;;;5052112;27;98850;-77
2023/07/11 09:57:31;;;;;;;3.55;1.75;;;;;;;;;;5051409;27;98444;-76
2023/07/11 10:00:01;;;;;;;4.10;1.77;;;;;;;;;;5050961;27;100087;-77
2023/07/11 10:02:48;;;;;;;3.05;1.63;;;;;;;;;;5054728;27;99986;-77
2023/07/11 10:05:18;;;;;;;3.47;2.10;;;;;;;;;;5051797;27;99871;-72
2023/07/11 10:07:44;;;;;;;5.90;2.03;;;;;;;;;;5052169;27;99865;-73
2023/07/11 10:10:14;;;;;;;5.03;1.80;;;;;;;;;;5052086;27;98199;-73
2023/07/11 10:12:43;;;;;;;3.83;1.90;;;;;;;;;;5050497;27;98889;-74
2023/07/11 10:15:13;;;;;;;4.80;2.40;;;;;;;;;;5051469;27;100325;-75
2023/07/11 10:17:41;;;;;;;4.80;1.83;;;;;;;;;;5051092;27;98141;-75
2023/07/11 10:20:20;;;;;;;2.40;1.88;;;;;;;;;;5051076;27;99683;-75
2023/07/11 10:22:48;;;;;;;4.35;1.83;;;;;;;;;;5046208;27;100160;-75
2023/07/11 10:25:19;;;;;;;8.57;2.42;;;;;;;;;;5053541;27;100204;-76
2023/07/11 10:27:52;;;;;;;2.90;1.70;;;;;;;;;;5050586;27;99038;-76
2023/07/11 10:30:25;;;;;;;5.80;1.92;;;;;;;;;;5051716;27;98148;-75
2023/07/11 10:33:03;;;;;;;4.13;1.55;;;;;;;;;;5051588;27;100114;-77
2023/07/11 10:35:50;;;;;;;5.95;2.20;;;;;;;;;;5051351;27;99954;-76
2023/07/11 10:38:17;;;;;;;;;;;;;;;;;;5051905;27;99029;-76
2023/07/11 10:40:49;;;;;;;4.95;1.77;;;;;;;;;;5045623;27;128615;-77
2023/07/11 10:43:29;;;;;;;7.03;1.98;;;;;;;;;;5051371;27;99525;-77
2023/07/11 10:46:02;;;;;;;7.25;1.73;;;;;;;;;;5051796;27;98554;-75
2023/07/11 10:48:35;;;;;;;6.35;1.60;;;;;;;;;;5046722;27;100065;-75
2023/07/11 10:51:03;;;;;;;3.10;1.70;;;;;;;;;;5042623;27;98402;-77
2023/07/11 10:53:42;;;;;;;2.00;1.48;;;;;;;;;;5048419;27;99540;-76
2023/07/11 10:56:30;;;;;;;5.13;1.83;;;;;;;;;;5047833;27;100134;-75
2023/07/11 10:58:56;;;;;;;2.20;1.65;;;;;;;;;;5047666;27;98202;-74
2023/07/11 11:01:38;;;;;;;3.40;2.13;;;;;;;;;;5050215;27;99634;-74
2023/07/11 11:04:04;;;;;;;2.10;1.60;;;;;;;;;;5047319;27;99931;-75
2023/07/11 11:06:43;;;;;;;5.93;2.10;;;;;;;;;;5049896;27;98366;-76
2023/07/11 11:09:15;;;;;;;6.20;2.17;;;;;;;;;;5047045;27;99507;-76
2023/07/11 11:11:48;;;;;;;6.20;2.33;;;;;;;;;;5044192;27;98831;-78
2023/07/11 11:14:16;;;;;;;2.97;1.80;;;;;;;;;;5049634;27;98823;-76
2023/07/11 11:17:09;;;;;;;6.35;2.20;;;;;;;;;;5048823;27;100024;-75
2023/07/11 11:19:47;;;;;;;7.05;2.33;;;;;;;;;;5010106;27;99132;-75
2023/07/11 11:22:24;;;;;;;2.28;1.73;;;;;;;;;;5046654;27;99647;-76
2023/07/11 11:24:50;;;;;;;3.58;2.00;;;;;;;;;;5050833;27;99102;-75
2023/07/11 11:27:32;;;;;;;3.70;2.13;;;;;;;;;;5050429;27;98250;-76
2023/07/11 11:30:17;;;;;;;6.18;2.13;;;;;;;;;;5042441;27;99459;-76
2023/07/11 11:32:58;;;;;;;3.15;1.90;;;;;;;;;;5052502;27;99279;-75
2023/07/11 11:35:25;;;;;;;;;;;;;;;;;;5051252;27;98827;-75
2023/07/11 11:38:10;;;;;;;6.15;2.45;;;;;;;;;;5048647;27;130009;-75
2023/07/11 11:40:37;;;;;;;2.97;1.90;;;;;;;;;;5050434;27;98063;-75
2023/07/11 11:43:06;;;;;;;4.32;1.77;;;;;;;;;;5047856;27;98859;-76
2023/07/11 11:45:46;;;;;;;8.13;1.90;;;;;;;;;;5049527;27;100376;-75
2023/07/11 11:48:24;;;;;;;12.15;2.03;;;;;;;;;;5045880;27;98145;-76
2023/07/11 11:50:53;;;;;;;6.88;2.35;;;;;;;;;;5041770;27;99395;-75
2023/07/11 11:53:31;;;;;;;3.17;1.85;;;;;;;;;;5049089;27;100451;-75
2023/07/11 11:55:58;;;;;;;4.22;2.28;;;;;;;;;;5047457;27;98712;-76
2023/07/11 11:58:57;;;;;;;5.60;2.63;;;;;;;;;;5062091;27;99928;-78
2023/07/11 12:01:36;;;;;;;6.20;2.30;;;;;;;;;;5048417;27;99665;-76
2023/07/11 12:04:21;;;;;;;4.80;2.25;;;;;;;;;;5052269;27;99322;-77
2023/07/11 12:06:50;;;;;;;5.32;2.40;;;;;;;;;;5050852;27;100166;-77
2023/07/11 12:09:16;;;;;;;4.35;1.95;;;;;;;;;;5049996;27;98237;-76
2023/07/11 12:12:02;;;;;;;3.17;2.08;;;;;;;;;;5046729;27;99899;-76
2023/07/11 12:14:34;;;;;;;6.38;2.00;;;;;;;;;;5046564;27;100311;-76
2023/07/11 12:17:00;;;;;;;4.00;2.30;;;;;;;;;;5049605;27;98288;-77
2023/07/11 12:19:32;;;;;;;4.13;2.85;;;;;;;;;;5052193;27;99352;-77
2023/07/11 12:22:01;;;;;;;7.63;1.73;;;;;;;;;;5037995;27;98171;-76
2023/07/11 12:24:37;;;;;;;4.03;2.28;;;;;;;;;;5038788;27;98679;-77
2023/07/11 12:27:20;;;;;;;8.67;1.97;;;;;;;;;;5047170;27;100077;-77
2023/07/11 12:29:47;;;;;;;6.82;2.15;;;;;;;;;;5047801;27;99599;-77
2023/07/11 12:32:29;;;;;;;5.63;1.83;;;;;;;;;;5046931;27;98731;-78
2023/07/11 12:35:16;;;;;;;4.13;2.00;;;;;;;;;;5048917;27;98918;-78
2023/07/11 12:37:46;;;;;;;6.32;2.28;;;;;;;;;;5049489;27;98336;-78
2023/07/11 12:40:13;;;;;;;3.40;1.83;;;;;;;;;;5047318;27;99508;-77
2023/07/11 12:42:53;;;;;;;4.07;1.90;;;;;;;;;;5050727;27;98960;-78
2023/07/11 12:45:21;;;;;;;9.43;2.45;;;;;;;;;;5048012;27;98684;-77
2023/07/11 12:47:49;;;;;;;5.63;2.17;;;;;;;;;;5038282;27;99856;-78
2023/07/11 12:50:24;;;;;;;14.45;2.40;;;;;;;;;;5042280;27;98240;-77
2023/07/11 12:53:01;;;;;;;15.95;2.67;;;;;;;;;;5047350;27;99601;-75
2023/07/11 12:55:29;;;;;;;6.38;2.45;;;;;;;;;;5047073;27;99105;-76
2023/07/11 12:57:58;;;;;;;8.40;2.75;;;;;;;;;;5048386;27;98223;-76
2023/07/11 13:00:27;;;;;;;7.20;2.42;;;;;;;;;;5048265;27;99652;-76
2023/07/11 13:02:54;;;;;;;5.07;2.10;;;;;;;;;;5044803;27;99036;-76
2023/07/11 13:05:22;;;;;;;7.30;2.42;;;;;;;;;;5047887;27;99725;-77
2023/07/11 13:07:50;;;;;;;4.63;2.35;;;;;;;;;;5047143;27;98972;-78
2023/07/11 13:10:21;;;;;;;4.25;2.20;;;;;;;;;;5048556;27;98335;-77
2023/07/11 13:12:47;;;;;;;5.63;2.33;;;;;;;;;;5046995;27;99526;-77
2023/07/11 13:15:14;;;;;;;6.18;2.28;;;;;;;;;;5047022;27;99281;-77
2023/07/11 13:17:41;;;;;;;6.53;2.17;;;;;;;;;;5046110;27;98247;-77
2023/07/11 13:20:14;;;;;;;4.78;2.08;;;;;;;;;;5043001;27;98983;-76
2023/07/11 13:22:41;;;;;;;5.30;2.05;;;;;;;;;;5027757;28;100122;-76
2023/07/11 13:25:14;;;;;;;6.18;2.38;;;;;;;;;;5045287;27;98297;-77
2023/07/11 13:27:41;;;;;;;7.30;2.35;;;;;;;;;;5052034;27;99956;-77
2023/07/11 13:30:21;;;;;;;3.72;2.28;;;;;;;;;;5049013;27;98375;-77
2023/07/11 13:32:55;;;;;;;5.85;2.05;;;;;;;;;;5050025;27;98816;-77
2023/07/11 13:35:24;;;;;;;3.65;2.17;;;;;;;;;;5045710;27;99383;-77
2023/07/11 13:38:01;;;;;;;7.05;1.98;;;;;;;;;;5046724;27;98752;-77
2023/07/11 13:40:38;;;;;;;9.27;2.20;;;;;;;;;;5048572;27;98578;-77
2023/07/11 13:43:18;;;;;;;11.15;2.25;;;;;;;;;;5038064;27;98964;-77
2023/07/11 13:45:49;;;;;;;8.40;2.80;;;;;;;;;;5042482;27;99428;-78
2023/07/11 13:48:18;;;;;;;6.57;2.13;;;;;;;;;;5053987;27;98652;-77
2023/07/11 13:50:45;;;;;;;5.15;2.03;;;;;;;;;;5046464;27;98305;-78
2023/07/11 13:53:14;;;;;;;4.45;2.63;;;;;;;;;;5046874;27;99427;-76
2023/07/11 13:55:42;;;;;;;2.53;2.08;;;;;;;;;;5046517;27;101315;-77
2023/07/11 13:58:09;;;;;;;7.80;1.90;;;;;;;;;;5048815;27;99869;-77
2023/07/11 14:00:37;;;;;;;3.35;1.92;;;;;;;;;;5049114;27;99370;-79
2023/07/11 14:03:05;;;;;;;2.90;2.33;;;;;;;;;;5049215;27;101632;-77
2023/07/11 14:05:32;;;;;;;3.53;1.98;;;;;;;;;;5046988;27;99068;-76
2023/07/11 14:08:00;;;;;;;2.58;2.05;;;;;;;;;;5046329;27;99670;-77
2023/07/11 14:10:28;;;;;;;7.18;1.88;;;;;;;;;;5052687;27;99891;-76
2023/07/11 14:12:57;;;;;;;3.40;2.00;;;;;;;;;;5051080;27;99679;-77
2023/07/11 14:15:25;;;;;;;4.63;1.67;;;;;;;;;;5049070;27;100718;-75
2023/07/11 14:17:52;;;;;;;7.50;2.05;;;;;;;;;;5049923;27;98297;-77
2023/07/11 14:20:21;;;;;;;4.53;1.83;;;;;;;;;;5051797;27;99401;-77
2023/07/11 14:22:47;;;;;;;8.48;2.17;;;;;;;;;;5049944;27;99117;-77
2023/07/11 14:25:15;;;;;;;5.28;1.85;;;;;;;;;;5046901;27;98518;-77
2023/07/11 14:27:42;;;;;;;17.58;5.38;;;;;;;;;;5050611;27;99373;-77
2023/07/11 14:30:13;;;;;;;3.25;2.13;;;;;;;;;;5049351;27;100213;-75
2023/07/11 14:32:40;;;;;;;2.97;2.13;;;;;;;;;;5052504;27;98301;-77
2023/07/11 14:35:36;;;;;;;2.22;1.83;;;;;;;;;;5050831;27;100468;-78
2023/07/11 14:38:06;;;;;;;3.05;1.98;;;;;;;;;;5045392;27;98531;-77
2023/07/11 14:40:33;;;;;;;3.13;1.83;;;;;;;;;;5047623;27;99891;-79
2023/07/11 14:42:59;;;;;;;9.98;2.05;;;;;;;;;;5052103;27;100045;-79
2023/07/11 14:45:26;;;;;;;6.45;1.73;;;;;;;;;;5050637;27;99928;-77
2023/07/11 14:47:53;;;;;;;5.50;2.20;;;;;;;;;;5050484;27;99379;-78
2023/07/11 14:50:21;;;;;;;3.67;1.98;;;;;;;;;;5050864;27;98940;-78
2023/07/11 14:52:48;;;;;;;5.47;1.58;;;;;;;;;;5048727;27;98258;-77